Time;durP1;ratioP1;P1;durP2;ratioP2;P2;SDS_P1;SDS_P2;PMS_P1;PMS_P2;Temp;Humidity;BMP_temperature;BMP_pressure;BME280_temperature;BME280_humidity;BME280_pressure;Samples;Min_cycle;Max_cycle;Signal;HPM_P1;HPM_P2
2022/06/28 00:01:35;;;;;;;10.50;9.45;;;;;;;24.09;64.72;100119.20;1689239;83;21054;-73
2022/06/28 00:04:02;;;;;;;12.40;8.95;;;;;;;24.11;64.93;100116.14;1687746;84;22870;-74
2022/06/28 00:06:29;;;;;;;11.08;9.80;;;;;;;24.05;65.04;100118.26;1683699;84;20967;-74
2022/06/28 00:08:55;;;;;;;13.10;8.68;;;;;;;24.03;65.18;100115.02;1697129;84;20996;-74
2022/06/28 00:11:22;;;;;;;8.98;8.20;;;;;;;24.04;65.16;100111.70;1698654;84;20992;-70
2022/06/28 00:13:49;;;;;;;9.28;8.20;;;;;;;24.03;65.04;100116.39;1698175;83;20941;-72
2022/06/28 00:16:16;;;;;;;11.10;7.28;;;;;;;24.04;64.96;100109.77;1684410;84;21275;-69
2022/06/28 00:18:43;;;;;;;15.13;8.73;;;;;;;24.08;64.81;100112.66;1698616;84;21595;-69
2022/06/28 00:21:10;;;;;;;8.53;7.72;;;;;;;24.10;64.66;100113.15;1694075;83;21005;-71
2022/06/28 00:23:39;;;;;;;10.35;8.50;;;;;;;24.12;64.58;100113.64;1668764;84;21005;-71
2022/06/28 00:26:07;;;;;;;10.30;8.38;;;;;;;24.14;64.48;100109.41;1698566;83;21027;-69
2022/06/28 00:28:35;;;;;;;13.40;8.08;;;;;;;24.14;64.47;100108.03;1696836;84;21099;-72
2022/06/28 00:31:03;;;;;;;9.83;8.80;;;;;;;24.17;64.36;100107.39;1696644;84;21032;-70
2022/06/28 00:33:30;;;;;;;8.93;7.95;;;;;;;24.15;64.54;100104.16;1696502;83;20917;-72
2022/06/28 00:35:57;;;;;;;10.03;8.40;;;;;;;24.07;64.65;100099.51;1697915;84;20940;-72
2022/06/28 00:38:24;;;;;;;8.93;8.23;;;;;;;24.02;64.80;100098.88;1669250;84;21044;-72
2022/06/28 00:40:52;;;;;;;9.85;8.78;;;;;;;23.96;65.06;100098.81;1699052;83;21096;-72
2022/06/28 00:43:21;;;;;;;10.50;9.33;;;;;;;23.90;65.39;100100.93;1705549;83;21489;-72
2022/06/28 00:45:51;;;;;;;9.75;8.95;;;;;;;23.84;65.66;100104.98;1697548;84;21027;-73
2022/06/28 00:48:18;;;;;;;10.38;9.15;;;;;;;23.72;66.02;100098.00;1697239;84;21541;-73
2022/06/28 00:50:45;;;;;;;10.58;9.03;;;;;;;23.57;66.47;100095.20;1697310;84;20997;-71
2022/06/28 00:53:15;;;;;;;10.03;8.98;;;;;;;23.45;66.92;100101.34;1694996;84;21930;-70
2022/06/28 00:55:42;;;;;;;14.05;8.60;;;;;;;23.36;67.31;100093.66;1695827;84;20950;-71
2022/06/28 00:58:09;;;;;;;9.95;8.33;;;;;;;23.30;67.61;100094.17;1695892;84;21503;-71
2022/06/28 01:00:45;;;;;;;9.63;8.73;;;;;;;23.21;67.94;100101.61;1700093;84;21202;-70
2022/06/28 01:03:15;;;;;;;11.28;9.00;;;;;;;23.14;68.21;100090.30;1691195;84;21596;-73
2022/06/28 01:05:44;;;;;;;10.65;7.72;;;;;;;23.13;68.50;100095.54;1677555;84;21113;-72
2022/06/28 01:08:12;;;;;;;9.05;8.15;;;;;;;23.12;68.59;100098.06;1701986;83;20960;-73
2022/06/28 01:10:39;;;;;;;11.25;8.28;;;;;;;23.10;68.67;100094.27;1682424;84;20981;-72
2022/06/28 01:13:06;;;;;;;9.80;7.67;;;;;;;23.10;68.71;100101.13;1710304;83;21155;-74
2022/06/28 01:15:34;;;;;;;8.30;7.50;;;;;;;23.11;68.66;100101.37;1674294;84;21072;-72
2022/06/28 01:18:04;;;;;;;9.23;8.28;;;;;;;23.12;68.64;100104.33;1657995;84;21291;-73
2022/06/28 01:20:44;;;;;;;12.90;8.30;;;;;;;23.11;68.68;100100.00;1704868;84;21525;-73
2022/06/28 01:23:19;;;;;;;11.00;7.95;;;;;;;23.11;68.79;100088.21;1703131;82;21033;-73
2022/06/28 01:25:47;;;;;;;27.37;23.80;;;;;;;23.08;68.95;100092.95;1705472;84;21033;-74
2022/06/28 01:28:17;;;;;;;17.25;15.48;;;;;;;23.05;69.07;100091.67;1680388;85;21040;-74
2022/06/28 01:30:45;;;;;;;11.25;10.15;;;;;;;23.06;69.10;100102.09;1681557;84;21781;-74
2022/06/28 01:33:14;;;;;;;11.08;9.98;;;;;;;23.03;69.25;100103.52;1704187;83;21013;-73
2022/06/28 01:35:41;;;;;;;9.53;8.73;;;;;;;22.98;69.53;100095.45;1687784;85;20974;-73
2022/06/28 01:38:08;;;;;;;11.57;9.30;;;;;;;22.90;69.66;100097.08;1692816;84;21587;-72
2022/06/28 01:40:35;;;;;;;9.68;8.78;;;;;;;22.87;69.92;100092.80;1708630;83;20993;-74
2022/06/28 01:43:02;;;;;;;9.68;8.68;;;;;;;22.78;70.19;100092.77;1697565;84;21136;-73
2022/06/28 01:45:32;;;;;;;8.05;7.22;;;;;;;22.70;70.50;100090.83;1710105;83;20975;-74
2022/06/28 01:47:58;;;;;;;9.28;7.47;;;;;;;22.67;71.44;100089.27;1697231;84;21076;-74
2022/06/28 01:50:25;;;;;;;7.72;6.95;;;;;;;22.73;71.39;100093.52;1706564;84;21482;-73
2022/06/28 01:52:52;;;;;;;8.23;7.53;;;;;;;22.81;71.07;100099.00;1690992;82;21155;-74
2022/06/28 01:55:20;;;;;;;10.85;8.18;;;;;;;22.87;70.92;100094.17;1670637;83;21150;-73
2022/06/28 01:57:47;;;;;;;12.93;8.03;;;;;;;22.91;70.61;100095.14;1697528;84;21806;-75
2022/06/28 02:00:16;;;;;;;9.05;8.13;;;;;;;22.86;70.48;100090.63;1710302;83;21580;-75
2022/06/28 02:02:43;;;;;;;9.15;8.25;;;;;;;22.81;70.59;100093.52;1693731;83;21016;-74
2022/06/28 02:05:20;;;;;;;8.98;8.08;;;;;;;22.78;70.71;100094.14;1699007;84;21007;-75
2022/06/28 02:07:51;;;;;;;9.75;8.33;;;;;;;22.78;70.76;100088.66;1707407;83;21154;-75
2022/06/28 02:10:19;;;;;;;9.30;8.35;;;;;;;22.79;70.76;100089.47;1702235;83;20917;-72
2022/06/28 02:12:47;;;;;;;9.70;8.68;;;;;;;22.80;70.81;100093.83;1689053;84;21040;-71
2022/06/28 02:15:14;;;;;;;10.78;9.45;;;;;;;22.78;70.83;100090.63;1687814;84;21007;-71
2022/06/28 02:17:42;;;;;;;9.73;8.93;;;;;;;22.77;70.86;100091.18;1691448;84;21021;-72
2022/06/28 02:20:11;;;;;;;9.88;8.98;;;;;;;22.77;70.90;100091.74;1686691;84;21741;-73
2022/06/28 02:22:38;;;;;;;9.15;8.23;;;;;;;22.78;70.84;100092.77;1659453;85;21108;-73
2022/06/28 02:25:06;;;;;;;10.75;9.80;;;;;;;22.79;70.89;100089.47;1688051;84;20990;-73
2022/06/28 02:27:35;;;;;;;11.57;10.35;;;;;;;22.77;71.00;100089.00;1718179;82;21048;-72
2022/06/28 02:30:03;;;;;;;11.57;8.53;;;;;;;22.69;71.18;100084.26;1718234;82;21043;-72
2022/06/28 02:32:30;;;;;;;10.85;8.95;;;;;;;22.63;71.64;100086.93;1669896;84;21763;-72
2022/06/28 02:40:27;;;;;;;11.00;8.45;;;;;;;22.59;72.26;100092.23;1673733;84;21557;-71
2022/06/28 02:42:59;;;;;;;9.95;9.05;;;;;;;22.65;71.90;100088.77;1688223;84;21068;-69
2022/06/28 02:45:28;;;;;;;10.03;9.03;;;;;;;22.66;71.91;100093.14;1702891;83;21004;-72
2022/06/28 02:47:55;;;;;;;9.88;8.93;;;;;;;22.65;71.91;100094.26;1687590;84;20982;-71
2022/06/28 02:50:22;;;;;;;10.55;9.45;;;;;;;22.66;71.94;100094.51;1687114;83;21441;-70
2022/06/28 02:52:50;;;;;;;11.73;8.65;;;;;;;22.68;71.99;100090.89;1704198;83;21043;-72
2022/06/28 02:55:18;;;;;;;9.18;8.10;;;;;;;22.71;71.97;100090.27;1673736;85;21520;-74
2022/06/28 02:57:45;;;;;;;10.75;9.75;;;;;;;22.74;71.97;100087.69;1688052;85;21201;-73
2022/06/28 03:00:15;;;;;;;14.07;9.58;;;;;;;22.77;71.86;100089.81;1703513;83;21482;-72
2022/06/28 03:02:42;;;;;;;10.72;9.33;;;;;;;22.82;71.76;100091.59;1703621;82;21505;-74
2022/06/28 03:05:13;;;;;;;13.50;11.53;;;;;;;22.84;71.69;100094.23;1687327;84;21042;-74
2022/06/28 03:07:40;;;;;;;11.12;9.50;;;;;;;22.88;71.65;100089.72;1688455;84;21137;-74
2022/06/28 03:10:08;;;;;;;10.28;9.45;;;;;;;22.90;71.53;100085.29;1709574;82;21145;-73
2022/06/28 03:12:36;;;;;;;10.08;9.08;;;;;;;22.92;71.52;100087.16;1696281;84;21209;-75
2022/06/28 03:15:05;;;;;;;15.75;10.53;;;;;;;22.95;71.43;100084.58;1683839;83;21010;-73
2022/06/28 03:17:32;;;;;;;11.15;9.73;;;;;;;22.97;71.45;100087.78;1658989;85;21071;-74
2022/06/28 03:19:59;;;;;;;11.22;10.08;;;;;;;22.99;71.49;100087.47;1680062;84;21057;-74
2022/06/28 03:22:25;;;;;;;14.55;11.05;;;;;;;23.03;71.47;100085.69;1696639;83;21114;-74
2022/06/28 03:24:52;;;;;;;13.65;10.63;;;;;;;23.05;71.42;100090.30;1710246;83;21007;-74
2022/06/28 03:27:19;;;;;;;11.93;9.80;;;;;;;23.12;71.40;100086.49;1697037;84;21088;-74
2022/06/28 03:29:45;;;;;;;18.07;14.18;;;;;;;23.21;71.21;100090.06;1697288;84;21043;-75
2022/06/28 03:32:14;;;;;;;10.95;9.90;;;;;;;23.29;70.92;100093.36;1709376;83;21012;-75
2022/06/28 03:34:41;;;;;;;9.50;8.60;;;;;;;23.35;70.58;100089.33;1680730;84;22682;-72
2022/06/28 03:37:09;;;;;;;9.95;8.98;;;;;;;23.40;70.50;100086.38;1664273;84;21493;-76
2022/06/28 03:39:37;;;;;;;9.88;9.08;;;;;;;23.46;70.39;100092.55;1690954;83;21050;-74
2022/06/28 03:42:06;;;;;;;11.48;10.40;;;;;;;23.53;70.16;100092.88;1712031;82;21020;-74
2022/06/28 03:44:33;;;;;;;10.48;9.58;;;;;;;23.59;69.93;100089.39;1671522;83;21575;-75
2022/06/28 03:47:01;;;;;;;12.73;11.15;;;;;;;23.65;69.64;100093.00;1697785;84;21141;-74
2022/06/28 03:49:50;;;;;;;10.53;9.33;;;;;;;23.72;69.46;100093.88;1692432;83;21084;-75
2022/06/28 03:52:18;;;;;;;10.35;9.20;;;;;;;23.78;69.35;100097.51;1705406;83;21613;-76
2022/06/28 03:54:49;;;;;;;9.98;8.95;;;;;;;23.80;69.16;100097.97;1660790;83;21041;-76
2022/06/28 03:57:18;;;;;;;10.15;8.65;;;;;;;23.87;68.99;100090.05;1704935;83;21565;-75
2022/06/28 03:59:45;;;;;;;10.23;7.62;;;;;;;23.94;68.86;100092.83;1705770;83;21521;-76
2022/06/28 04:02:12;;;;;;;8.38;7.50;;;;;;;24.01;68.46;100098.64;1705601;82;21067;-76
2022/06/28 04:04:39;;;;;;;10.70;9.63;;;;;;;24.08;68.20;100095.59;1707413;83;21004;-76
2022/06/28 04:07:06;;;;;;;19.67;9.30;;;;;;;24.14;67.95;100097.04;1711111;83;21016;-75
2022/06/28 04:09:35;;;;;;;9.18;8.20;;;;;;;24.23;67.76;100101.14;1710898;83;21011;-74
2022/06/28 04:12:02;;;;;;;11.45;8.00;;;;;;;24.29;67.63;100093.77;1708300;83;21139;-76
2022/06/28 04:14:29;;;;;;;9.63;7.85;;;;;;;24.36;67.25;100099.33;1698112;84;20999;-77
2022/06/28 04:16:56;;;;;;;8.50;7.58;;;;;;;24.41;66.87;100097.77;1697744;84;20970;-76
2022/06/28 04:19:42;;;;;;;13.22;7.50;;;;;;;24.46;66.60;100100.33;1707178;83;21053;-75
2022/06/28 04:22:08;;;;;;;8.38;7.75;;;;;;;24.51;66.20;100091.89;1710632;83;21544;-78
2022/06/28 04:24:36;;;;;;;7.83;7.03;;;;;;;24.55;65.95;100093.64;1710610;83;21238;-76
2022/06/28 04:27:10;;;;;;;9.93;7.42;;;;;;;24.60;65.69;100092.06;1720224;82;20988;-76
2022/06/28 04:29:38;;;;;;;8.10;7.30;;;;;;;24.64;65.30;100083.38;1697469;84;20976;-76
2022/06/28 04:32:07;;;;;;;9.43;8.40;;;;;;;24.71;64.99;100086.96;1707098;83;21076;-75
2022/06/28 04:34:35;;;;;;;8.33;7.62;;;;;;;24.75;64.81;100090.65;1694435;83;21055;-77
2022/06/28 04:37:03;;;;;;;10.95;8.63;;;;;;;24.81;64.93;100091.27;1711107;82;21668;-76
2022/06/28 04:39:30;;;;;;;9.35;8.53;;;;;;;24.85;64.93;100092.20;1697278;84;21008;-75
2022/06/28 04:42:13;;;;;;;12.13;8.63;;;;;;;24.91;65.24;100090.89;1709485;83;21634;-75
2022/06/28 04:44:42;;;;;;;10.43;8.10;;;;;;;24.95;65.26;100089.89;1710788;83;20993;-74
2022/06/28 04:47:10;;;;;;;8.85;8.05;;;;;;;25.00;65.21;100093.81;1708949;83;21044;-74
2022/06/28 04:49:37;;;;;;;9.68;8.78;;;;;;;25.05;64.97;100096.37;1695870;84;21542;-75
2022/06/28 04:52:07;;;;;;;10.65;9.55;;;;;;;25.11;64.91;100095.59;1705031;84;21113;-74
2022/06/28 04:54:35;;;;;;;9.55;8.75;;;;;;;25.17;64.75;100099.77;1712906;83;21049;-73
2022/06/28 04:57:22;;;;;;;9.18;7.90;;;;;;;25.23;64.25;100094.86;1713213;82;20990;-74
2022/06/28 04:59:50;;;;;;;14.68;8.53;;;;;;;25.29;64.53;100099.00;1694529;84;20958;-74
2022/06/28 05:02:25;;;;;;;8.58;7.78;;;;;;;25.33;64.44;100089.72;1694657;84;21838;-77
2022/06/28 05:04:52;;;;;;;9.98;8.48;;;;;;;25.38;64.09;100089.52;1705094;84;21645;-75
2022/06/28 05:07:20;;;;;;;11.35;7.92;;;;;;;25.45;63.81;100092.53;1705416;83;20964;-76
2022/06/28 05:09:47;;;;;;;9.43;8.40;;;;;;;25.51;63.10;100093.94;1703085;83;21529;-76
2022/06/28 05:12:16;;;;;;;10.13;8.03;;;;;;;25.58;62.63;100089.27;1698361;84;21589;-75
2022/06/28 05:14:42;;;;;;;8.08;7.37;;;;;;;25.65;62.52;100090.91;1696920;84;21059;-75
2022/06/28 05:17:10;;;;;;;8.88;8.08;;;;;;;25.72;62.25;100095.84;1695551;84;21028;-75
2022/06/28 05:19:38;;;;;;;8.05;7.28;;;;;;;25.77;61.86;100093.67;1681510;84;21043;-74
2022/06/28 05:22:08;;;;;;;7.85;7.15;;;;;;;25.86;61.67;100082.55;1695792;84;21108;-75
2022/06/28 05:24:37;;;;;;;7.37;6.78;;;;;;;25.92;61.10;100085.33;1699572;83;21076;-75
2022/06/28 05:27:05;;;;;;;10.48;6.62;;;;;;;26.00;60.84;100087.97;1695207;84;21286;-73
2022/06/28 05:29:34;;;;;;;9.75;7.70;;;;;;;26.08;60.80;100079.38;1698349;83;20972;-74
2022/06/28 05:32:02;;;;;;;12.05;10.28;;;;;;;26.14;60.41;100077.98;1697957;84;21552;-74
2022/06/28 05:34:29;;;;;;;8.78;7.12;;;;;;;26.21;60.23;100078.80;1700212;84;21058;-75
2022/06/28 05:36:57;;;;;;;8.65;7.85;;;;;;;26.29;59.93;100082.84;1698370;84;21040;-74
2022/06/28 05:39:24;;;;;;;7.92;7.22;;;;;;;26.36;59.71;100078.14;1695840;84;21313;-74
2022/06/28 05:41:51;;;;;;;8.00;7.20;;;;;;;26.43;59.13;100073.64;1695401;84;21041;-72
2022/06/28 05:44:18;;;;;;;8.53;7.17;;;;;;;26.51;58.75;100071.92;1695700;84;21084;-78
2022/06/28 05:46:45;;;;;;;6.65;5.55;;;;;;;26.58;58.20;100067.99;1695830;84;20941;-75
2022/06/28 05:49:12;;;;;;;6.92;6.05;;;;;;;26.65;57.23;100077.08;1697095;84;21072;-76
2022/06/28 05:51:38;;;;;;;6.00;5.50;;;;;;;26.70;57.44;100069.36;1698957;84;21635;-76
2022/06/28 05:54:07;;;;;;;6.00;5.50;;;;;;;26.77;57.14;100072.89;1698657;84;20996;-76
2022/06/28 05:56:35;;;;;;;7.17;6.10;;;;;;;26.83;56.70;100067.37;1696266;83;21121;-74
2022/06/28 05:59:04;;;;;;;7.60;6.83;;;;;;;26.89;56.54;100076.48;1642202;87;21068;-73
2022/06/28 06:01:31;;;;;;;11.03;6.40;;;;;;;26.96;56.75;100074.48;1650669;86;21061;-73
2022/06/28 06:03:58;;;;;;;5.83;5.33;;;;;;;27.02;56.52;100073.09;1697250;84;21087;-72
2022/06/28 06:06:25;;;;;;;7.62;6.12;;;;;;;27.09;56.06;100071.13;1696520;83;21514;-73
2022/06/28 06:08:53;;;;;;;8.63;5.95;;;;;;;27.14;56.09;100072.26;1696005;84;21088;-77
2022/06/28 06:11:22;;;;;;;10.55;5.40;;;;;;;27.19;55.77;100071.44;1676380;85;21319;-76
2022/06/28 06:13:49;;;;;;;5.55;5.00;;;;;;;27.26;55.43;100072.20;1695278;84;20997;-75
2022/06/28 06:16:15;;;;;;;5.95;5.17;;;;;;;27.31;55.27;100069.98;1702891;83;21098;-76
2022/06/28 06:18:44;;;;;;;5.67;5.17;;;;;;;27.40;55.19;100072.59;1675563;83;21537;-76
2022/06/28 06:21:11;;;;;;;5.65;5.25;;;;;;;27.48;54.36;100073.61;1703313;82;20909;-75
2022/06/28 06:23:37;;;;;;;6.45;4.75;;;;;;;27.57;53.25;100072.31;1703543;83;21039;-74
2022/06/28 06:26:05;;;;;;;7.80;4.85;;;;;;;27.63;52.81;100074.22;1703633;83;21055;-76
2022/06/28 06:28:34;;;;;;;6.50;4.87;;;;;;;27.69;52.46;100070.84;1702263;83;21142;-75
2022/06/28 06:31:04;;;;;;;5.95;5.08;;;;;;;27.75;52.33;100072.20;1687503;85;21046;-77
2022/06/28 06:33:49;;;;;;;10.58;8.75;;;;;;;27.80;51.90;100066.17;1703570;83;21040;-73
2022/06/28 06:36:36;;;;;;;5.78;5.28;;;;;;;27.85;51.78;100064.53;1673960;85;21039;-73
2022/06/28 06:39:03;;;;;;;6.55;5.00;;;;;;;27.90;50.73;100061.50;1686091;84;21037;-75
2022/06/28 06:41:31;;;;;;;6.33;5.72;;;;;;;27.97;50.64;100065.23;1675477;85;21135;-74
2022/06/28 06:43:58;;;;;;;6.60;5.12;;;;;;;28.05;50.26;100062.89;1660132;85;21627;-74
2022/06/28 06:46:25;;;;;;;6.80;4.35;;;;;;;28.11;47.95;100062.05;1679080;84;21118;-74
2022/06/28 06:48:52;;;;;;;6.10;5.60;;;;;;;28.20;47.96;100061.31;1689185;84;20982;-73
2022/06/28 06:51:22;;;;;;;6.30;5.22;;;;;;;28.26;48.58;100059.05;1708173;82;20977;-75
2022/06/28 06:53:49;;;;;;;4.50;4.20;;;;;;;28.32;48.28;100058.42;1674289;85;21655;-74
2022/06/28 06:56:16;;;;;;;5.80;5.17;;;;;;;28.39;48.19;100062.75;1685808;84;21033;-74
2022/06/28 06:58:42;;;;;;;5.22;4.83;;;;;;;28.44;47.99;100068.59;1686587;84;21552;-76
2022/06/28 07:01:09;;;;;;;6.55;5.45;;;;;;;28.49;47.67;100066.32;1684908;83;21107;-76
2022/06/28 07:03:40;;;;;;;6.72;4.62;;;;;;;28.53;47.53;100066.42;1702272;83;21056;-74
2022/06/28 07:06:05;;;;;;;7.22;4.55;;;;;;;28.57;47.58;100061.19;1703380;83;21516;-74
2022/06/28 07:08:33;;;;;;;5.10;4.35;;;;;;;28.63;47.61;100068.02;1677027;83;20992;-75
2022/06/28 07:11:02;;;;;;;6.78;4.50;;;;;;;28.72;47.03;100069.26;1671976;84;21477;-75
2022/06/28 07:13:28;;;;;;;5.83;5.28;;;;;;;28.79;47.13;100063.86;1704033;83;21020;-75
2022/06/28 07:15:58;;;;;;;5.33;4.80;;;;;;;28.87;46.86;100062.06;1652865;86;21016;-74
2022/06/28 07:18:24;;;;;;;5.10;4.70;;;;;;;28.93;46.44;100058.63;1669133;86;21139;-75
2022/06/28 07:20:55;;;;;;;6.28;5.08;;;;;;;28.97;46.16;100067.00;1706210;82;21089;-75
2022/06/28 07:23:22;;;;;;;7.33;5.40;;;;;;;28.99;46.12;100068.84;1710426;83;20940;-74
2022/06/28 07:25:49;;;;;;;6.12;5.20;;;;;;;29.00;46.54;100067.67;1710517;83;21008;-72
2022/06/28 07:28:16;;;;;;;6.00;5.10;;;;;;;29.04;46.33;100074.89;1710131;83;21022;-72
2022/06/28 07:30:44;;;;;;;10.95;5.87;;;;;;;29.08;45.90;100070.00;1709939;82;21087;-73
2022/06/28 07:33:12;;;;;;;6.92;5.95;;;;;;;29.07;45.89;100069.19;1710043;83;21540;-74
2022/06/28 07:35:40;;;;;;;7.87;5.95;;;;;;;29.11;45.94;100065.94;1693858;83;20972;-73
2022/06/28 07:38:08;;;;;;;7.83;6.05;;;;;;;29.16;45.66;100068.38;1710194;83;21054;-75
2022/06/28 07:40:37;;;;;;;11.63;6.20;;;;;;;29.24;45.77;100075.69;1673701;83;21015;-76
2022/06/28 07:43:23;;;;;;;8.45;5.45;;;;;;;29.31;45.93;100070.89;1709714;82;21336;-76
2022/06/28 07:45:52;;;;;;;6.62;6.12;;;;;;;29.35;45.49;100079.48;1709409;82;21031;-75
2022/06/28 07:48:19;;;;;;;6.00;5.50;;;;;;;29.38;45.44;100080.73;1697229;84;21141;-77
2022/06/28 07:53:33;;;;;;;5.87;5.40;;;;;;;29.36;45.40;100076.14;1693964;83;21063;-75
2022/06/28 07:56:07;;;;;;;8.10;5.80;;;;;;;29.39;45.26;100079.00;1682693;84;22301;-75
2022/06/28 07:58:40;;;;;;;17.25;6.92;;;;;;;29.42;45.51;100075.48;1702136;83;21636;-75
2022/06/28 08:01:08;;;;;;;7.78;6.12;;;;;;;29.51;45.52;100074.44;1710536;82;21055;-76
2022/06/28 08:03:36;;;;;;;35.28;9.20;;;;;;;29.56;45.42;100074.14;1697040;83;21561;-77
2022/06/28 08:06:03;;;;;;;7.12;6.42;;;;;;;29.61;45.40;100077.42;1709914;83;21018;-77
2022/06/28 08:08:31;;;;;;;8.05;6.53;;;;;;;29.70;44.60;100075.78;1697306;84;21269;-77
2022/06/28 08:10:59;;;;;;;8.10;7.40;;;;;;;29.75;44.60;100079.64;1675660;85;21032;-77
2022/06/28 08:13:27;;;;;;;7.70;6.90;;;;;;;29.81;44.62;100089.27;1687927;83;21072;-74
2022/06/28 08:15:54;;;;;;;8.15;7.12;;;;;;;29.87;44.55;100085.02;1688037;84;21007;-74
2022/06/28 08:18:21;;;;;;;6.95;6.45;;;;;;;29.94;44.67;100088.52;1703749;84;21168;-76
2022/06/28 08:20:49;;;;;;;8.05;6.75;;;;;;;29.98;43.63;100086.02;1703573;84;21870;-76
2022/06/28 08:23:16;;;;;;;8.85;8.15;;;;;;;30.01;43.62;100088.08;1703497;82;21477;-73
2022/06/28 08:25:46;;;;;;;10.55;9.18;;;;;;;30.03;43.76;100079.36;1688165;84;21010;-75
2022/06/28 08:28:13;;;;;;;8.13;7.40;;;;;;;30.05;43.88;100083.97;1673788;85;21071;-74
2022/06/28 08:30:41;;;;;;;8.28;7.33;;;;;;;30.08;44.16;100084.59;1674227;85;20992;-72
2022/06/28 08:33:09;;;;;;;8.48;7.85;;;;;;;30.07;44.19;100081.02;1673699;84;21565;-74
2022/06/28 08:35:37;;;;;;;11.97;7.12;;;;;;;30.09;43.78;100077.88;1652647;85;21046;-74
2022/06/28 08:38:05;;;;;;;8.80;6.28;;;;;;;30.08;44.08;100081.23;1660358;85;21073;-72
2022/06/28 08:40:33;;;;;;;10.90;7.05;;;;;;;30.14;43.74;100078.38;1698020;82;21465;-73
2022/06/28 08:43:00;;;;;;;8.93;6.92;;;;;;;30.17;43.52;100075.43;1686319;83;21493;-74
2022/06/28 08:45:28;;;;;;;9.53;6.90;;;;;;;30.23;43.32;100072.56;1703711;84;21588;-72
2022/06/28 08:47:56;;;;;;;8.55;7.35;;;;;;;30.33;43.04;100064.99;1700105;82;21548;-73
2022/06/28 08:50:34;;;;;;;7.45;6.90;;;;;;;30.39;43.26;100059.92;1702044;83;21035;-75
2022/06/28 08:53:03;;;;;;;6.72;6.12;;;;;;;30.48;43.20;100064.65;1683979;84;21128;-74
2022/06/28 08:55:31;;;;;;;10.50;6.00;;;;;;;30.52;42.76;100056.58;1693594;84;21051;-75
2022/06/28 08:57:59;;;;;;;7.78;7.05;;;;;;;30.59;42.50;100060.06;1703544;83;21064;-74
2022/06/28 09:00:26;;;;;;;8.63;7.37;;;;;;;30.71;42.09;100061.20;1703729;83;20941;-75
2022/06/28 09:02:53;;;;;;;7.47;6.75;;;;;;;30.83;42.23;100056.02;1703630;83;21101;-74
2022/06/28 09:05:21;;;;;;;6.78;6.28;;;;;;;30.92;41.85;100061.50;1703577;83;21039;-75
2022/06/28 09:07:50;;;;;;;6.78;6.12;;;;;;;30.98;40.67;100063.36;1701751;83;21039;-74
2022/06/28 09:10:18;;;;;;;9.70;8.38;;;;;;;30.92;40.72;100060.11;1704074;82;21063;-73
2022/06/28 09:12:55;;;;;;;7.20;6.60;;;;;;;30.88;41.11;100053.72;1692633;84;21131;-74
2022/06/28 09:15:18;;;;;;;8.40;7.25;;;;;;;30.89;41.06;100055.30;1682818;83;21881;-74
2022/06/28 09:17:45;;;;;;;8.90;8.20;;;;;;;30.86;41.35;100056.64;1710805;83;21501;-74
2022/06/28 09:20:12;;;;;;;9.53;8.63;;;;;;;30.81;41.79;100049.44;1695601;83;20948;-72
2022/06/28 09:22:43;;;;;;;8.73;8.03;;;;;;;30.78;42.39;100052.98;1716011;82;22203;-74
2022/06/28 09:25:26;;;;;;;10.18;7.50;;;;;;;30.80;42.58;100049.23;1706497;83;21737;-75
2022/06/28 09:27:58;;;;;;;13.28;11.85;;;;;;;30.86;42.24;100053.28;1696711;83;21804;-73
2022/06/28 09:30:26;;;;;;;8.10;7.37;;;;;;;30.93;42.19;100046.44;1678479;85;21619;-72
2022/06/28 09:32:53;;;;;;;10.72;8.53;;;;;;;31.00;42.30;100030.42;1681881;83;21560;-74
2022/06/28 09:35:20;;;;;;;9.58;8.68;;;;;;;31.01;42.54;100041.76;1683297;83;21156;-73
2022/06/28 09:37:48;;;;;;;9.38;8.45;;;;;;;31.03;42.70;100045.77;1692587;83;21544;-72
2022/06/28 09:40:21;;;;;;;9.13;8.43;;;;;;;31.00;42.47;100041.55;1709333;83;21028;-70
2022/06/28 09:43:15;;;;;;;10.82;7.78;;;;;;;30.96;42.74;100042.09;1713518;83;21532;-72
2022/06/28 09:45:46;;;;;;;12.13;9.58;;;;;;;30.94;42.57;100038.88;1694768;84;21092;-72
2022/06/28 09:48:17;;;;;;;10.70;8.98;;;;;;;30.94;42.40;100031.34;1706026;82;21140;-74
2022/06/28 09:50:44;;;;;;;8.05;7.25;;;;;;;31.03;42.67;100032.50;1705144;83;21020;-72
2022/06/28 09:53:14;;;;;;;9.63;8.83;;;;;;;31.14;42.47;100034.79;1704956;83;21053;-72
2022/06/28 09:55:39;;;;;;;9.08;8.13;;;;;;;31.17;41.80;100031.27;1704690;84;21060;-72
2022/06/28 09:58:06;;;;;;;8.85;8.08;;;;;;;31.22;42.04;100023.19;1688864;83;21123;-74
2022/06/28 10:00:35;;;;;;;8.85;8.13;;;;;;;31.28;41.52;100026.61;1709563;82;21024;-72
2022/06/28 10:03:03;;;;;;;10.35;9.33;;;;;;;31.34;41.36;100025.09;1695995;84;21035;-69
2022/06/28 10:05:30;;;;;;;8.63;7.83;;;;;;;31.43;41.48;100018.62;1705477;84;21049;-69
2022/06/28 10:07:58;;;;;;;8.98;8.18;;;;;;;31.57;41.42;100009.06;1665954;84;21072;-73
2022/06/28 10:10:25;;;;;;;8.58;7.85;;;;;;;31.70;40.96;100017.14;1688565;84;21120;-72
2022/06/28 10:15:50;;;;;;;10.20;9.33;;;;;;;31.79;40.59;100006.48;1695861;84;21039;-71
2022/06/28 10:18:20;;;;;;;10.38;8.78;;;;;;;31.79;40.31;99996.74;1704973;84;21335;-70
2022/06/28 10:20:47;;;;;;;7.92;7.33;;;;;;;31.73;40.39;99998.28;1708911;83;21554;-72
2022/06/28 10:23:40;;;;;;;9.80;8.15;;;;;;;31.79;40.33;99993.96;1727907;83;35982;-72
2022/06/28 10:26:13;;;;;;;7.25;6.55;;;;;;;31.83;40.10;99991.41;1714485;82;21747;-72
2022/06/28 10:28:44;;;;;;;14.78;8.60;;;;;;;31.87;40.21;99982.50;1695649;84;20954;-71
2022/06/28 10:31:26;;;;;;;10.00;9.03;;;;;;;31.94;40.26;99985.94;1675769;84;20996;-71
2022/06/28 10:33:57;;;;;;;12.20;8.28;;;;;;;32.02;40.18;99995.34;1707161;83;21020;-70
2022/06/28 10:36:26;;;;;;;10.25;7.85;;;;;;;32.05;39.92;99988.19;1699510;82;21150;-72
2022/06/28 10:39:10;;;;;;;8.50;7.70;;;;;;;32.12;39.75;99986.09;1708722;83;21105;-70
2022/06/28 10:41:49;;;;;;;7.92;7.33;;;;;;;32.17;39.36;99982.34;1708853;84;21054;-68
2022/06/28 10:44:36;;;;;;;7.92;7.33;;;;;;;32.24;38.63;99983.77;1709191;84;21489;-70
2022/06/28 10:47:10;;;;;;;7.12;6.50;;;;;;;32.33;38.64;99980.63;1709313;83;21516;-72
2022/06/28 10:49:57;;;;;;;8.13;7.17;;;;;;;32.38;38.08;99991.41;1694056;84;21077;-71
2022/06/28 10:52:35;;;;;;;7.65;6.95;;;;;;;32.40;38.17;99984.86;1715169;83;21168;-71
2022/06/28 10:55:12;;;;;;;7.90;7.00;;;;;;;32.45;38.32;99985.89;1706403;83;21502;-72
2022/06/28 10:57:40;;;;;;;7.25;6.65;;;;;;;32.51;37.85;99976.57;1701087;83;21209;-73
2022/06/28 11:00:13;;;;;;;8.05;7.45;;;;;;;32.52;38.19;99980.95;1707668;83;20940;-73
2022/06/28 11:02:56;;;;;;;10.68;8.28;;;;;;;32.56;38.15;99975.61;1689902;83;21096;-74
2022/06/28 11:05:44;;;;;;;20.50;18.73;;;;;;;32.71;37.72;99980.68;1694079;83;21168;-73
2022/06/28 11:08:15;;;;;;;8.33;7.58;;;;;;;32.88;37.42;99984.11;1690809;84;21077;-74
2022/06/28 11:11:04;;;;;;;7.30;6.75;;;;;;;32.98;37.03;99979.77;1706467;83;21150;-74
2022/06/28 11:13:31;;;;;;;10.05;9.13;;;;;;;32.91;37.05;99979.73;1700589;82;21054;-74
2022/06/28 11:15:59;;;;;;;12.33;9.80;;;;;;;32.95;37.17;99974.98;1684684;83;21556;-73
2022/06/28 11:18:25;;;;;;;12.05;10.93;;;;;;;33.03;37.32;99977.40;1708771;83;21300;-75
2022/06/28 11:20:54;;;;;;;8.00;7.37;;;;;;;33.11;36.68;99970.64;1694872;83;20941;-73
2022/06/28 11:23:29;;;;;;;9.25;8.45;;;;;;;33.07;36.63;99969.03;1690659;84;21004;-75
2022/06/28 11:28:56;;;;;;;7.08;6.45;;;;;;;32.98;36.66;99968.62;1673589;84;21035;-73
2022/06/28 11:31:25;;;;;;;;;;;;;;;32.97;35.99;99969.80;1711923;83;21182;-73
2022/06/28 11:33:52;;;;;;;9.88;8.90;;;;;;;32.84;36.45;99962.41;1691268;84;20161;-75
2022/06/28 11:36:30;;;;;;;7.97;7.20;;;;;;;32.83;36.92;99963.59;1709438;83;20998;-73
2022/06/28 11:39:21;;;;;;;8.53;7.40;;;;;;;32.92;36.75;99961.23;1693618;83;21515;-73
2022/06/28 11:41:53;;;;;;;10.10;7.85;;;;;;;33.01;36.61;99959.45;1710039;83;21108;-69
2022/06/28 11:44:22;;;;;;;7.47;6.78;;;;;;;33.10;36.62;99962.06;1697457;84;21104;-73
2022/06/28 11:46:50;;;;;;;8.23;7.62;;;;;;;33.11;36.70;99962.87;1675953;84;21058;-74
2022/06/28 11:49:28;;;;;;;11.18;6.72;;;;;;;33.03;36.53;99959.88;1667563;85;21036;-76